createdAt,value
2019-05-05T00:01:17.280Z,22.39
2019-05-05T00:03:50.905Z,22.07
2019-05-05T00:06:17.282Z,22.33
2019-05-05T00:08:45.576Z,22.12
2019-05-05T00:11:15.400Z,22.94
2019-05-05T00:13:46.056Z,22.89
2019-05-05T00:16:26.466Z,22.03
2019-05-05T00:18:54.276Z,22.68
2019-05-05T00:21:20.625Z,22.79
2019-05-05T00:23:46.807Z,22.41
2019-05-05T00:26:14.960Z,22.52
2019-05-05T00:28:41.252Z,22.84
2019-05-05T00:31:07.434Z,22.52
2019-05-05T00:33:34.339Z,22.67
2019-05-05T00:36:00.697Z,22.83
2019-05-05T00:38:26.851Z,23.32
2019-05-05T00:40:55.037Z,22.95
2019-05-05T00:43:21.274Z,22.33
2019-05-05T00:45:49.353Z,23.13
2019-05-05T00:48:24.506Z,23.00
2019-05-05T00:50:51.923Z,22.06
2019-05-05T00:53:18.399Z,22.56
2019-05-05T00:55:44.702Z,21.87
2019-05-05T00:58:10.875Z,22.44
2019-05-05T01:00:41.788Z,23.19
2019-05-05T01:03:08.122Z,22.89
2019-05-05T01:05:51.120Z,23.65
2019-05-05T01:08:19.324Z,22.79
2019-05-05T01:10:45.603Z,22.78
2019-05-05T01:13:11.754Z,23.47
2019-05-05T01:15:38.061Z,22.95
2019-05-05T01:18:04.710Z,22.36
2019-05-05T01:20:31.092Z,23.05
2019-05-05T01:22:57.302Z,22.97
2019-05-05T01:25:25.385Z,22.93
2019-05-05T01:27:51.934Z,22.51
2019-05-05T01:30:21.211Z,22.94
2019-05-05T01:32:49.280Z,23.42
2019-05-05T01:35:15.557Z,23.51
2019-05-05T01:37:46.148Z,23.59
2019-05-05T01:40:32.771Z,23.74
2019-05-05T01:42:59.054Z,22.82
2019-05-05T01:45:25.373Z,23.46
2019-05-05T01:47:51.543Z,22.52
2019-05-05T01:50:21.246Z,22.80
2019-05-05T01:52:45.803Z,23.97
2019-05-05T01:55:14.539Z,23.40
2019-05-05T01:57:40.604Z,23.87
2019-05-05T02:00:07.263Z,23.67
2019-05-05T02:02:34.283Z,23.93
2019-05-05T02:05:00.669Z,24.57
2019-05-05T02:07:26.820Z,24.78
2019-05-05T02:09:55.196Z,23.69
2019-05-05T02:12:21.112Z,23.77
2019-05-05T02:14:47.266Z,23.15
2019-05-05T02:17:14.446Z,23.80
2019-05-05T02:19:40.957Z,24.53
2019-05-05T02:22:07.139Z,24.82
2019-05-05T02:24:35.353Z,24.56
2019-05-05T02:27:01.943Z,24.06
2019-05-05T02:29:32.884Z,23.06
2019-05-05T02:32:18.517Z,23.88
2019-05-05T02:34:49.095Z,24.18
2019-05-05T02:37:16.082Z,24.18
2019-05-05T02:39:52.627Z,23.89
2019-05-05T02:42:11.323Z,24.50
2019-05-05T02:44:38.497Z,24.75
2019-05-05T02:47:29.093Z,24.35
2019-05-05T02:49:58.848Z,24.36
2019-05-05T02:52:25.615Z,24.31
2019-05-05T02:54:53.644Z,24.08
2019-05-05T02:57:21.198Z,24.48
2019-05-05T02:59:54.000Z,24.11
2019-05-05T03:02:23.661Z,24.01
2019-05-05T03:04:50.654Z,23.83
2019-05-05T03:07:17.717Z,24.02
2019-05-05T03:09:45.253Z,24.07
2019-05-05T03:12:14.786Z,24.15
2019-05-05T03:14:44.499Z,24.14
2019-05-05T03:17:14.137Z,24.06
2019-05-05T03:19:40.164Z,24.23
2019-05-05T03:22:06.828Z,23.93
2019-05-05T03:24:34.109Z,23.32
2019-05-05T03:27:00.897Z,23.20
2019-05-05T03:29:27.354Z,24.24
2019-05-05T03:31:56.213Z,23.58
2019-05-05T03:34:23.987Z,24.77
2019-05-05T03:36:53.467Z,25.56
2019-05-05T03:42:01.273Z,25.65
2019-05-05T03:44:39.119Z,25.93
2019-05-05T03:47:05.400Z,27.31
2019-05-05T03:49:33.677Z,26.97
2019-05-05T03:52:00.032Z,27.29
2019-05-05T03:54:26.307Z,28.22
2019-05-05T03:57:07.723Z,27.37
2019-05-05T03:59:35.095Z,28.43
2019-05-05T04:02:03.961Z,28.61
2019-05-05T04:04:33.555Z,28.49
2019-05-05T04:07:00.693Z,27.29
2019-05-05T04:09:27.054Z,29.00
2019-05-05T04:11:53.947Z,29.52
2019-05-05T04:14:20.857Z,29.64
2019-05-05T04:16:49.047Z,27.99
2019-05-05T04:19:17.136Z,28.27
2019-05-05T04:21:44.881Z,28.44
2019-05-05T04:24:11.287Z,28.18
2019-05-05T04:26:37.475Z,30.08
2019-05-05T04:29:05.374Z,31.41
2019-05-05T04:31:31.980Z,30.33
2019-05-05T04:33:58.173Z,29.03
2019-05-05T04:36:24.333Z,28.97
2019-05-05T04:38:50.507Z,27.02
2019-05-05T04:41:16.693Z,29.96
2019-05-05T04:43:44.172Z,30.97
2019-05-05T04:46:10.560Z,31.27
2019-05-05T04:48:41.444Z,29.71
2019-05-05T04:51:09.517Z,29.21
2019-05-05T04:53:37.594Z,27.80
2019-05-05T04:56:04.293Z,28.36
2019-05-05T04:58:30.768Z,29.48
2019-05-05T05:00:57.052Z,28.63
2019-05-05T05:03:34.633Z,26.60
2019-05-05T05:06:05.502Z,29.17
2019-05-05T05:08:33.688Z,28.83
2019-05-05T05:10:59.782Z,26.44
2019-05-05T05:13:25.956Z,28.82
2019-05-05T05:15:53.940Z,28.89
2019-05-05T05:18:20.452Z,27.79
2019-05-05T05:20:46.628Z,28.64
2019-05-05T05:23:14.175Z,29.11
2019-05-05T05:25:40.774Z,27.48
2019-05-05T05:28:06.948Z,28.83
2019-05-05T05:30:34.691Z,29.28
2019-05-05T05:33:01.229Z,31.66
2019-05-05T05:35:27.381Z,29.38
2019-05-05T05:37:55.932Z,30.20
2019-05-05T05:40:23.697Z,29.34
2019-05-05T05:42:49.946Z,28.56
2019-05-05T05:45:21.010Z,28.38
2019-05-05T05:48:05.407Z,26.39
2019-05-05T05:50:33.989Z,26.61
2019-05-05T05:53:00.402Z,28.56
2019-05-05T05:55:26.621Z,27.50
2019-05-05T05:57:54.224Z,27.75
2019-05-05T06:00:20.749Z,29.02
2019-05-05T06:02:47.045Z,27.70
2019-05-05T06:05:14.767Z,30.90
2019-05-05T06:07:41.177Z,30.81
2019-05-05T06:10:21.106Z,30.77
2019-05-05T06:12:36.246Z,28.94
2019-05-05T06:15:03.984Z,28.52
2019-05-05T06:17:30.428Z,27.38
2019-05-05T06:19:56.676Z,28.31
2019-05-05T06:22:29.371Z,27.64
2019-05-05T06:24:50.957Z,25.46
2019-05-05T06:27:17.108Z,26.33
2019-05-05T06:29:43.817Z,27.16
2019-05-05T06:32:10.401Z,27.30
2019-05-05T06:34:36.557Z,27.27
2019-05-05T06:37:04.200Z,26.83
2019-05-05T06:39:30.840Z,26.40
2019-05-05T06:42:01.443Z,24.74
2019-05-05T06:44:41.234Z,26.88
2019-05-05T06:47:13.502Z,25.92
2019-05-05T06:49:39.818Z,25.93
2019-05-05T06:52:06.121Z,25.48
2019-05-05T06:54:32.312Z,26.17
2019-05-05T06:56:58.492Z,25.60
2019-05-05T06:59:24.709Z,26.06
2019-05-05T07:01:50.979Z,25.61
2019-05-05T07:04:17.133Z,26.53
2019-05-05T07:06:53.435Z,27.28
2019-05-05T07:09:13.393Z,27.13
2019-05-05T07:11:39.564Z,26.50
2019-05-05T07:14:05.764Z,27.16
2019-05-05T07:16:31.932Z,26.67
2019-05-05T07:18:58.104Z,25.67
2019-05-05T07:21:24.416Z,27.43
2019-05-05T07:23:53.708Z,26.24
2019-05-05T07:26:20.156Z,28.04
2019-05-05T07:28:46.352Z,25.82
2019-05-05T07:31:14.345Z,29.31
2019-05-05T07:33:40.977Z,27.49
2019-05-05T07:36:09.087Z,27.14
2019-05-05T07:38:35.266Z,25.92
2019-05-05T07:41:03.555Z,27.59
2019-05-05T07:43:29.638Z,26.56
2019-05-05T07:45:55.816Z,26.31
2019-05-05T07:48:24.172Z,28.10
2019-05-05T07:50:59.761Z,26.58
2019-05-05T07:53:18.178Z,26.80
2019-05-05T07:55:44.343Z,27.68
2019-05-05T07:58:10.555Z,24.45
2019-05-05T08:00:36.718Z,25.42
2019-05-05T08:03:03.704Z,26.43
2019-05-05T08:05:30.095Z,27.43
2019-05-05T08:07:56.263Z,27.55
2019-05-05T08:10:24.152Z,27.51
2019-05-05T08:12:50.424Z,27.75
2019-05-05T08:15:18.604Z,27.90
2019-05-05T08:18:04.547Z,26.73
2019-05-05T08:20:33.907Z,27.17
2019-05-05T08:23:01.025Z,25.33
2019-05-05T08:25:39.161Z,26.36
2019-05-05T08:28:04.163Z,25.91
2019-05-05T08:30:33.728Z,25.15
2019-05-05T08:33:00.414Z,25.21
2019-05-05T08:35:26.571Z,26.65
2019-05-05T08:37:54.251Z,26.84
2019-05-05T08:40:20.729Z,26.00
2019-05-05T08:42:46.889Z,24.55
2019-05-05T08:45:13.895Z,24.75
2019-05-05T08:47:40.303Z,25.45
2019-05-05T08:50:07.482Z,26.44
2019-05-05T08:52:34.279Z,25.17
2019-05-05T08:55:00.766Z,26.24
2019-05-05T08:57:26.949Z,28.13
2019-05-05T08:59:54.522Z,27.42
2019-05-05T09:02:20.885Z,27.70
2019-05-05T09:04:47.078Z,27.79
2019-05-05T09:07:13.844Z,28.07
2019-05-05T09:09:40.161Z,26.18
2019-05-05T09:12:06.346Z,26.89
2019-05-05T09:14:34.410Z,27.41
2019-05-05T09:17:00.742Z,26.91
2019-05-05T09:19:26.899Z,26.12
2019-05-05T09:21:54.181Z,29.13
2019-05-05T09:24:28.165Z,28.20
2019-05-05T09:27:07.888Z,28.83
2019-05-05T09:29:35.987Z,27.50
2019-05-05T09:32:04.037Z,27.44
2019-05-05T09:34:30.333Z,27.26
2019-05-05T09:36:57.417Z,27.35
2019-05-05T09:39:24.008Z,27.28
2019-05-05T09:41:50.375Z,26.94
2019-05-05T09:44:16.567Z,28.36
2019-05-05T09:46:44.489Z,26.85
2019-05-05T09:49:10.832Z,26.49
2019-05-05T09:51:37.148Z,29.13
2019-05-05T09:54:11.906Z,28.13
2019-05-05T09:56:31.561Z,28.25
2019-05-05T09:58:59.671Z,27.74
2019-05-05T10:01:25.935Z,28.13
2019-05-05T10:03:54.030Z,28.89
2019-05-05T10:06:20.235Z,29.60
2019-05-05T10:08:46.397Z,28.24
2019-05-05T10:11:12.551Z,30.08
2019-05-05T10:13:38.778Z,29.45
2019-05-05T10:16:06.121Z,29.04
2019-05-05T10:18:35.569Z,30.68
2019-05-05T10:21:00.405Z,32.56
2019-05-05T10:23:28.474Z,32.00
2019-05-05T10:25:56.559Z,31.36
2019-05-05T10:28:23.972Z,31.70
2019-05-05T10:30:50.311Z,29.87
2019-05-05T10:33:16.490Z,31.07
2019-05-05T10:35:43.865Z,29.10
2019-05-05T10:38:10.237Z,28.72
2019-05-05T10:40:36.406Z,30.24
2019-05-05T10:43:04.368Z,29.86
2019-05-05T10:45:31.046Z,28.39
2019-05-05T10:47:57.352Z,30.57
2019-05-05T10:50:24.623Z,29.33
2019-05-05T10:52:53.561Z,28.74
2019-05-05T10:55:19.391Z,29.17
2019-05-05T10:57:45.699Z,28.10
2019-05-05T11:00:15.552Z,27.29
2019-05-05T11:02:42.687Z,28.18
2019-05-05T11:05:09.515Z,29.26
2019-05-05T11:07:35.873Z,30.35
2019-05-05T11:10:04.128Z,30.83
2019-05-05T11:12:30.451Z,30.71
2019-05-05T11:14:56.606Z,29.50
2019-05-05T11:17:24.756Z,30.92
2019-05-05T11:19:50.890Z,30.52
2019-05-05T11:22:17.046Z,29.57
2019-05-05T11:24:56.720Z,28.32
2019-05-05T11:27:11.423Z,29.12
2019-05-05T11:29:39.509Z,29.16
2019-05-05T11:32:07.563Z,30.97
2019-05-05T11:34:33.889Z,30.08
2019-05-05T11:37:11.000Z,30.01
2019-05-05T11:39:37.297Z,29.97
2019-05-05T11:42:04.420Z,29.22
2019-05-05T11:44:30.728Z,29.43
2019-05-05T11:46:56.951Z,28.85
2019-05-05T11:49:24.479Z,30.09
2019-05-05T11:51:50.901Z,29.53
2019-05-05T11:54:17.112Z,27.82
2019-05-05T11:56:44.679Z,30.36
2019-05-05T11:59:11.137Z,29.20
2019-05-05T12:01:37.443Z,28.12
2019-05-05T12:04:05.555Z,28.67
2019-05-05T12:06:33.846Z,28.79
2019-05-05T12:09:01.743Z,31.06
2019-05-05T12:11:27.919Z,29.38
2019-05-05T12:13:54.584Z,29.69
2019-05-05T12:16:30.925Z,30.80
2019-05-05T12:18:57.098Z,31.65
2019-05-05T12:21:24.245Z,33.41
2019-05-05T12:23:50.651Z,30.75
2019-05-05T12:26:21.724Z,30.72
2019-05-05T12:28:49.801Z,33.95
2019-05-05T12:31:17.901Z,32.25
2019-05-05T12:33:44.299Z,31.91
2019-05-05T12:36:10.647Z,32.50
2019-05-05T12:38:36.837Z,31.34
2019-05-05T12:41:04.242Z,33.06
2019-05-05T12:43:30.691Z,31.48
2019-05-05T12:46:10.535Z,29.91
2019-05-05T12:48:38.598Z,29.39
2019-05-05T12:51:04.775Z,29.27
2019-05-05T12:53:30.972Z,28.13
2019-05-05T12:55:57.147Z,29.75
2019-05-05T12:58:23.346Z,30.93
2019-05-05T13:00:51.469Z,29.86
2019-05-05T13:03:17.746Z,30.14
2019-05-05T13:05:44.623Z,29.80
2019-05-05T13:08:11.066Z,30.38
2019-05-05T13:10:37.253Z,30.47
2019-05-05T13:13:03.866Z,32.13
2019-05-05T13:15:30.331Z,31.68
2019-05-05T13:17:56.504Z,30.52
2019-05-05T13:20:24.725Z,30.78
2019-05-05T13:22:58.661Z,32.42
2019-05-05T13:25:33.611Z,31.19
2019-05-05T13:28:00.005Z,32.02
2019-05-05T13:30:26.295Z,30.00
2019-05-05T13:32:54.416Z,29.53
2019-05-05T13:35:20.528Z,29.80
2019-05-05T13:37:46.929Z,31.47
2019-05-05T13:40:14.308Z,29.90
2019-05-05T13:42:40.483Z,29.89
2019-05-05T13:45:09.993Z,29.89
2019-05-05T13:47:36.156Z,29.17
2019-05-05T13:50:09.511Z,29.22
2019-05-05T13:52:35.792Z,28.69
2019-05-05T13:55:02.271Z,28.53
2019-05-05T13:57:28.451Z,29.16
2019-05-05T13:59:54.716Z,29.13
2019-05-05T14:02:20.920Z,29.28
2019-05-05T14:04:47.102Z,29.31
2019-05-05T14:07:14.352Z,29.09
2019-05-05T14:09:40.499Z,29.80
2019-05-05T14:12:06.693Z,31.18
2019-05-05T14:14:33.626Z,29.63
2019-05-05T14:17:00.063Z,29.02
2019-05-05T14:19:26.238Z,29.48
2019-05-05T14:21:53.843Z,30.73
2019-05-05T14:24:27.768Z,29.25
2019-05-05T14:26:54.294Z,29.65
2019-05-05T14:29:38.731Z,29.41
2019-05-05T14:32:05.857Z,29.34
2019-05-05T14:34:33.913Z,29.28
2019-05-05T14:37:18.573Z,28.74
2019-05-05T14:39:44.859Z,28.77
2019-05-05T14:42:11.041Z,29.61
2019-05-05T14:44:37.355Z,28.42
2019-05-05T14:47:03.787Z,28.56
2019-05-05T14:49:29.956Z,28.59
2019-05-05T14:51:56.151Z,29.69
2019-05-05T14:54:22.327Z,29.45
2019-05-05T14:56:48.509Z,29.67
2019-05-05T14:59:14.691Z,30.81
2019-05-05T15:01:40.847Z,29.82
2019-05-05T15:04:08.940Z,29.03
2019-05-05T15:06:37.057Z,30.08
2019-05-05T15:09:24.676Z,28.14
2019-05-05T15:12:09.669Z,27.78
2019-05-05T15:14:35.923Z,29.79
2019-05-05T15:17:03.684Z,28.57
2019-05-05T15:19:30.196Z,28.50
2019-05-05T15:21:56.382Z,28.62
2019-05-05T15:24:24.411Z,29.65
2019-05-05T15:26:54.304Z,28.90
2019-05-05T15:29:18.713Z,28.42
2019-05-05T15:31:44.869Z,27.85
2019-05-05T15:34:11.095Z,28.56
2019-05-05T15:36:37.274Z,29.51
2019-05-05T15:39:06.841Z,29.35
2019-05-05T15:41:34.127Z,28.54
2019-05-05T15:44:00.430Z,29.68
2019-05-05T15:46:26.585Z,30.64
2019-05-05T15:48:54.590Z,28.75
2019-05-05T15:51:20.869Z,28.94
2019-05-05T15:53:47.056Z,30.71
2019-05-05T15:56:13.952Z,29.69
2019-05-05T15:58:40.356Z,30.16
2019-05-05T16:01:06.550Z,30.19
2019-05-05T16:03:32.875Z,28.29
2019-05-05T16:05:59.067Z,29.40
2019-05-05T16:08:25.232Z,27.77
2019-05-05T16:10:54.426Z,27.68
2019-05-05T16:13:20.490Z,26.85
2019-05-05T16:15:49.163Z,27.75
2019-05-05T16:18:29.563Z,27.58
2019-05-05T16:20:57.638Z,27.48
2019-05-05T16:23:25.696Z,28.57
2019-05-05T16:25:54.108Z,26.91
2019-05-05T16:28:20.099Z,28.18
2019-05-05T16:30:46.359Z,28.15
2019-05-05T16:33:13.757Z,27.78
2019-05-05T16:35:40.355Z,27.12
2019-05-05T16:38:06.725Z,26.69
2019-05-05T16:40:33.850Z,26.49
2019-05-05T16:43:00.121Z,27.87
2019-05-05T16:45:26.307Z,27.65
2019-05-05T16:47:54.410Z,26.64
2019-05-05T16:50:20.584Z,27.40
2019-05-05T16:53:04.030Z,27.03
2019-05-05T16:55:34.366Z,26.91
2019-05-05T16:58:00.310Z,26.75
2019-05-05T17:00:26.604Z,26.05
2019-05-05T17:02:53.719Z,26.28
2019-05-05T17:05:19.959Z,26.52
2019-05-05T17:07:46.283Z,26.63
2019-05-05T17:10:13.812Z,25.72
2019-05-05T17:12:40.380Z,26.84
2019-05-05T17:15:08.775Z,26.48
2019-05-05T17:17:36.862Z,26.96
2019-05-05T17:20:07.367Z,26.35
2019-05-05T17:22:37.969Z,26.07
2019-05-05T17:25:05.330Z,26.55
2019-05-05T17:27:44.852Z,26.40
2019-05-05T17:29:59.601Z,25.98
2019-05-05T17:32:25.931Z,26.19
2019-05-05T17:34:53.996Z,26.31
2019-05-05T17:37:20.204Z,25.59
2019-05-05T17:39:48.260Z,25.92
2019-05-05T17:42:23.962Z,25.58
2019-05-05T17:44:57.683Z,26.25
2019-05-05T17:47:28.599Z,25.20
2019-05-05T17:49:59.198Z,26.53
2019-05-05T17:52:34.359Z,26.30
2019-05-05T17:55:04.571Z,24.95
2019-05-05T17:57:30.632Z,25.63
2019-05-05T17:59:56.957Z,25.31
2019-05-05T18:02:23.666Z,24.96
2019-05-05T18:04:50.071Z,26.30
2019-05-05T18:07:21.090Z,26.16
2019-05-05T18:10:00.185Z,26.27
2019-05-05T18:12:28.302Z,25.47
2019-05-05T18:14:57.397Z,24.73
2019-05-05T18:17:24.382Z,25.12
2019-05-05T18:19:50.769Z,25.02
2019-05-05T18:22:18.183Z,25.74
2019-05-05T18:24:44.696Z,25.00
2019-05-05T18:27:11.066Z,25.93
2019-05-05T18:29:37.326Z,25.50
2019-05-05T18:32:04.333Z,25.35
2019-05-05T18:34:30.812Z,24.94
2019-05-05T18:36:56.977Z,26.57
2019-05-05T18:39:24.715Z,25.84
2019-05-05T18:41:55.718Z,25.04
2019-05-05T18:44:24.199Z,24.21
2019-05-05T18:47:11.109Z,25.52
2019-05-05T18:49:37.136Z,25.56
2019-05-05T18:52:04.115Z,25.17
2019-05-05T18:54:30.486Z,24.99
2019-05-05T18:56:56.668Z,24.70
2019-05-05T18:59:23.983Z,24.65
2019-05-05T19:01:52.350Z,24.86
2019-05-05T19:04:23.208Z,24.78
2019-05-05T19:06:57.222Z,24.62
2019-05-05T19:09:24.924Z,25.60
2019-05-05T19:11:51.472Z,25.27
2019-05-05T19:14:17.685Z,24.83
2019-05-05T19:16:43.940Z,24.21
2019-05-05T19:19:10.111Z,24.39
2019-05-05T19:21:45.216Z,25.40
2019-05-05T19:24:11.387Z,25.89
2019-05-05T19:26:38.729Z,25.01
2019-05-05T19:29:05.249Z,25.21
2019-05-05T19:31:36.332Z,25.13
2019-05-05T19:34:03.855Z,23.95
2019-05-05T19:36:29.771Z,25.22
2019-05-05T19:38:56.264Z,24.50
2019-05-05T19:41:23.773Z,24.66
2019-05-05T19:43:54.692Z,24.28
2019-05-05T19:46:23.515Z,24.70
2019-05-05T19:48:49.925Z,24.78
2019-05-05T19:51:18.027Z,23.96
2019-05-05T19:53:44.814Z,23.80
2019-05-05T19:56:13.515Z,24.95
2019-05-05T19:58:39.832Z,24.73
2019-05-05T20:01:06.088Z,24.73
2019-05-05T20:03:34.669Z,23.71
2019-05-05T20:06:01.409Z,24.27
2019-05-05T20:08:39.693Z,24.27
2019-05-05T20:10:55.661Z,24.44
2019-05-05T20:13:22.285Z,24.69
2019-05-05T20:15:50.344Z,24.38
2019-05-05T20:18:16.550Z,24.67
2019-05-05T20:20:44.482Z,23.80
2019-05-05T20:23:10.837Z,25.05
2019-05-05T20:25:36.987Z,24.57
2019-05-05T20:28:03.853Z,24.62
2019-05-05T20:30:30.371Z,24.74
2019-05-05T20:33:10.577Z,24.67
2019-05-05T20:35:44.360Z,24.36
2019-05-05T20:38:14.283Z,24.12
2019-05-05T20:40:44.322Z,24.47
2019-05-05T20:43:10.555Z,24.62
2019-05-05T20:45:36.724Z,25.01
2019-05-05T20:48:04.528Z,24.84
2019-05-05T20:50:31.025Z,24.13
2019-05-05T20:52:57.200Z,24.20
2019-05-05T20:55:25.764Z,24.19
2019-05-05T20:57:53.549Z,25.31
2019-05-05T21:00:19.885Z,24.88
2019-05-05T21:02:46.080Z,24.47
2019-05-05T21:05:14.463Z,24.75
2019-05-05T21:07:40.423Z,24.17
2019-05-05T21:10:07.132Z,23.65
2019-05-05T21:12:41.883Z,24.70
2019-05-05T21:15:01.372Z,24.71
2019-05-05T21:17:27.595Z,24.51
2019-05-05T21:19:53.771Z,24.72
2019-05-05T21:22:30.767Z,24.44
2019-05-05T21:24:57.640Z,24.15
2019-05-05T21:27:24.497Z,24.33
2019-05-05T21:29:51.006Z,24.91
2019-05-05T21:32:17.392Z,24.38
2019-05-05T21:34:44.464Z,23.93
2019-05-05T21:37:10.867Z,24.04
2019-05-05T21:39:37.035Z,23.67
2019-05-05T21:42:04.656Z,23.84
2019-05-05T21:44:31.209Z,24.52
2019-05-05T21:46:59.230Z,24.27
2019-05-05T21:49:25.561Z,24.48
2019-05-05T21:52:05.780Z,24.07
2019-05-05T21:54:38.108Z,25.07
2019-05-05T21:57:13.936Z,23.93
2019-05-05T21:59:52.981Z,24.27
2019-05-05T22:02:08.700Z,24.94
2019-05-05T22:04:34.895Z,24.69
2019-05-05T22:07:01.080Z,24.85
2019-05-05T22:09:27.249Z,24.47
2019-05-05T22:11:54.516Z,24.65
2019-05-05T22:14:20.930Z,24.53
2019-05-05T22:16:47.189Z,24.73
2019-05-05T22:19:14.609Z,24.64
2019-05-05T22:21:43.745Z,24.50
2019-05-05T22:24:15.917Z,24.45
2019-05-05T22:26:44.538Z,24.53
2019-05-05T22:29:11.089Z,23.93
2019-05-05T22:31:37.671Z,23.99
2019-05-05T22:34:05.345Z,23.92
2019-05-05T22:36:33.776Z,24.09
2019-05-05T22:38:59.828Z,23.89
2019-05-05T22:41:26.055Z,23.99
2019-05-05T22:43:52.231Z,24.80
2019-05-05T22:46:18.385Z,24.40
2019-05-05T22:48:44.592Z,24.01
2019-05-05T22:51:10.762Z,24.92
2019-05-05T22:53:36.913Z,24.15
2019-05-05T22:56:04.017Z,23.91
2019-05-05T22:58:30.581Z,24.60
2019-05-05T23:00:56.787Z,24.40
2019-05-05T23:03:24.875Z,25.09
2019-05-05T23:05:55.650Z,24.90
2019-05-05T23:08:24.197Z,24.70
2019-05-05T23:10:49.994Z,24.65
2019-05-05T23:13:16.170Z,24.53
2019-05-05T23:15:47.189Z,24.28
2019-05-05T23:18:20.816Z,23.87
2019-05-05T23:20:50.773Z,23.84
2019-05-05T23:23:18.858Z,23.76
2019-05-05T23:25:46.947Z,23.46
2019-05-05T23:28:14.698Z,24.69
2019-05-05T23:30:42.520Z,24.33
2019-05-05T23:33:09.313Z,23.89
2019-05-05T23:35:35.987Z,23.65
2019-05-05T23:38:03.570Z,23.86
2019-05-05T23:40:29.936Z,24.28
2019-05-05T23:42:56.117Z,24.06
2019-05-05T23:45:24.471Z,24.57
2019-05-05T23:47:50.386Z,25.02
2019-05-05T23:50:16.552Z,24.69
2019-05-05T23:52:44.314Z,24.51
2019-05-05T23:55:10.817Z,24.26
2019-05-05T23:57:36.995Z,24.89
